createdAt,value
2023-08-27T00:02:29.330Z,76.94
2023-08-27T00:08:19.151Z,76.42
2023-08-27T00:11:08.856Z,76.39
2023-08-27T00:13:59.418Z,76.50
2023-08-27T00:16:39.082Z,76.75
2023-08-27T00:19:36.179Z,76.84
2023-08-27T00:22:24.560Z,76.98
2023-08-27T00:24:56.095Z,76.86
2023-08-27T00:27:42.228Z,76.77
2023-08-27T00:30:17.385Z,76.73
2023-08-27T00:32:48.495Z,76.67
2023-08-27T00:35:20.042Z,76.69
2023-08-27T00:37:51.085Z,76.63
2023-08-27T00:40:22.060Z,76.71
2023-08-27T00:42:57.024Z,76.68
2023-08-27T00:45:28.843Z,76.49
2023-08-27T00:48:04.358Z,76.72
2023-08-27T00:50:37.571Z,76.90
2023-08-27T00:53:09.822Z,76.80
2023-08-27T00:55:41.363Z,76.97
2023-08-27T00:58:12.881Z,76.94
2023-08-27T01:00:44.108Z,76.79
2023-08-27T01:03:14.990Z,76.78
2023-08-27T01:05:46.189Z,77.02
2023-08-27T01:08:42.839Z,77.02
2023-08-27T01:11:28.358Z,76.96
2023-08-27T01:14:05.741Z,77.11
2023-08-27T01:16:41.441Z,76.98
2023-08-27T01:19:20.762Z,76.92
2023-08-27T01:21:51.796Z,76.77
2023-08-27T01:24:22.705Z,76.84
2023-08-27T01:27:09.531Z,76.97
2023-08-27T01:29:45.413Z,77.03
2023-08-27T01:32:27.711Z,77.06
2023-08-27T01:35:01.636Z,77.15
2023-08-27T01:37:32.550Z,77.14
2023-08-27T01:40:07.472Z,77.10
2023-08-27T01:42:41.284Z,77.04
2023-08-27T01:45:16.872Z,77.22
2023-08-27T01:47:47.950Z,77.54
2023-08-27T01:50:18.774Z,77.28
2023-08-27T01:52:49.570Z,77.34
2023-08-27T01:55:22.277Z,77.41
2023-08-27T01:57:52.975Z,77.39
2023-08-27T02:00:23.895Z,77.29
2023-08-27T02:02:55.104Z,77.36
2023-08-27T02:05:25.786Z,77.33
2023-08-27T02:07:57.303Z,77.35
2023-08-27T02:10:27.968Z,77.36
2023-08-27T02:12:59.203Z,77.66
2023-08-27T02:15:31.077Z,77.87
2023-08-27T02:18:01.976Z,77.81
2023-08-27T02:20:32.939Z,78.03
2023-08-27T02:23:04.515Z,77.84
2023-08-27T02:25:35.222Z,77.70
2023-08-27T02:28:06.695Z,77.62
2023-08-27T02:30:37.727Z,77.75
2023-08-27T02:33:08.733Z,77.65
2023-08-27T02:35:39.403Z,77.61
2023-08-27T02:38:10.049Z,77.73
2023-08-27T02:40:42.680Z,77.69
2023-08-27T02:43:13.766Z,77.63
2023-08-27T02:45:44.436Z,77.73
2023-08-27T02:48:15.223Z,77.81
2023-08-27T02:50:46.173Z,77.70
2023-08-27T02:53:17.046Z,77.87
2023-08-27T02:55:47.873Z,77.85
2023-08-27T02:58:18.627Z,77.79
2023-08-27T03:00:49.454Z,77.74
2023-08-27T03:03:20.329Z,77.78
2023-08-27T03:05:51.256Z,78.02
2023-08-27T03:08:21.963Z,78.15
2023-08-27T03:10:52.845Z,78.34
2023-08-27T03:13:23.574Z,78.34
2023-08-27T03:15:58.089Z,78.38
2023-08-27T03:18:32.375Z,78.22
2023-08-27T03:21:03.649Z,77.99
2023-08-27T03:23:36.715Z,78.16
2023-08-27T03:26:07.576Z,78.11
2023-08-27T03:28:38.213Z,78.25
2023-08-27T03:31:08.876Z,78.38
2023-08-27T03:33:40.847Z,78.22
2023-08-27T03:36:11.775Z,78.51
2023-08-27T03:38:42.427Z,78.42
2023-08-27T03:41:13.701Z,78.49
2023-08-27T03:43:44.416Z,78.45
2023-08-27T03:46:15.183Z,78.73
2023-08-27T03:48:45.847Z,78.69
2023-08-27T03:51:17.163Z,78.47
2023-08-27T03:53:47.835Z,78.49
2023-08-27T03:56:18.495Z,78.72
2023-08-27T03:58:50.472Z,78.42
2023-08-27T04:01:21.476Z,78.33
2023-08-27T04:03:54.554Z,78.50
2023-08-27T04:06:25.279Z,78.56
2023-08-27T04:08:56.073Z,78.66
2023-08-27T04:11:26.981Z,78.69
2023-08-27T04:13:57.653Z,79.01
2023-08-27T04:16:28.310Z,78.91
2023-08-27T04:18:59.165Z,78.62
2023-08-27T04:21:29.810Z,78.60
2023-08-27T04:24:00.441Z,78.66
2023-08-27T04:26:31.496Z,78.58
2023-08-27T04:29:02.161Z,78.52
2023-08-27T04:31:34.226Z,78.70
2023-08-27T04:34:05.113Z,78.89
2023-08-27T04:36:35.804Z,78.93
2023-08-27T04:39:08.351Z,78.96
2023-08-27T04:41:38.956Z,79.10
2023-08-27T04:44:12.369Z,79.10
2023-08-27T04:46:44.165Z,79.09
2023-08-27T04:49:16.187Z,78.78
2023-08-27T04:51:46.882Z,78.62
2023-08-27T04:54:17.591Z,78.66
2023-08-27T04:56:48.484Z,79.12
2023-08-27T04:59:21.972Z,79.04
2023-08-27T05:01:56.686Z,79.21
2023-08-27T05:04:27.329Z,78.99
2023-08-27T05:06:58.070Z,78.87
2023-08-27T05:09:29.197Z,79.01
2023-08-27T05:11:59.854Z,79.02
2023-08-27T05:14:30.480Z,78.93
2023-08-27T05:17:01.118Z,79.14
2023-08-27T05:19:31.832Z,78.99
2023-08-27T05:22:03.995Z,78.90
2023-08-27T05:24:36.147Z,79.15
2023-08-27T05:27:07.417Z,79.27
2023-08-27T05:29:38.207Z,79.18
2023-08-27T05:32:09.058Z,79.15
2023-08-27T05:34:39.817Z,79.27
2023-08-27T05:37:11.071Z,79.35
2023-08-27T05:39:41.770Z,79.37
2023-08-27T05:42:12.526Z,79.62
2023-08-27T05:44:43.203Z,79.69
2023-08-27T05:47:16.056Z,79.50
2023-08-27T05:49:47.397Z,79.77
2023-08-27T05:52:18.245Z,79.47
2023-08-27T05:54:49.128Z,79.37
2023-08-27T05:57:21.359Z,79.38
2023-08-27T05:59:52.083Z,79.38
2023-08-27T06:02:22.832Z,79.52
2023-08-27T06:04:53.534Z,79.49
2023-08-27T06:07:24.336Z,79.58
2023-08-27T06:09:54.985Z,79.67
2023-08-27T06:12:25.754Z,79.71
2023-08-27T06:14:56.478Z,79.66
2023-08-27T06:17:27.970Z,79.57
2023-08-27T06:20:10.455Z,79.29
2023-08-27T06:22:47.667Z,79.25
2023-08-27T06:25:26.385Z,79.49
2023-08-27T06:28:08.744Z,79.40
2023-08-27T06:30:45.993Z,79.51
2023-08-27T06:33:18.198Z,79.49
2023-08-27T06:35:50.007Z,79.60
2023-08-27T06:38:20.076Z,79.29
2023-08-27T06:40:51.055Z,78.96
2023-08-27T06:43:21.709Z,78.49
2023-08-27T06:45:52.671Z,78.63
2023-08-27T06:48:23.667Z,78.97
2023-08-27T06:50:55.780Z,79.10
2023-08-27T06:53:26.519Z,79.08
2023-08-27T06:55:57.317Z,79.00
2023-08-27T06:58:28.509Z,78.96
2023-08-27T07:00:59.282Z,79.12
2023-08-27T07:03:31.719Z,78.89
2023-08-27T07:06:06.905Z,78.57
2023-08-27T07:08:40.751Z,78.62
2023-08-27T07:11:18.738Z,78.67
2023-08-27T07:13:49.505Z,78.61
2023-08-27T07:16:20.696Z,78.45
2023-08-27T07:18:51.514Z,78.35
2023-08-27T07:21:23.284Z,78.39
2023-08-27T07:23:54.504Z,78.22
2023-08-27T07:26:25.205Z,78.01
2023-08-27T07:28:57.970Z,78.21
2023-08-27T07:31:29.034Z,78.22
2023-08-27T07:33:59.948Z,78.25
2023-08-27T07:36:31.212Z,77.99
2023-08-27T07:39:01.900Z,77.68
2023-08-27T07:41:32.977Z,77.65
2023-08-27T07:44:03.825Z,77.48
2023-08-27T07:46:34.518Z,77.36
2023-08-27T07:49:05.569Z,77.43
2023-08-27T07:51:36.292Z,77.13
2023-08-27T07:54:08.801Z,76.82
2023-08-27T07:56:39.463Z,76.92
2023-08-27T07:59:10.311Z,77.24
2023-08-27T08:01:40.932Z,77.15
2023-08-27T08:04:11.663Z,77.13
2023-08-27T08:06:42.506Z,77.23
2023-08-27T08:09:14.816Z,77.10
2023-08-27T08:11:46.013Z,76.84
2023-08-27T08:14:16.646Z,76.77
2023-08-27T08:16:47.793Z,76.85
2023-08-27T08:19:18.476Z,77.18
2023-08-27T08:21:49.230Z,77.24
2023-08-27T08:24:19.887Z,77.72
2023-08-27T08:26:53.808Z,77.54
2023-08-27T08:29:24.580Z,77.57
2023-08-27T08:31:55.221Z,77.55
2023-08-27T08:34:25.820Z,77.57
2023-08-27T08:36:56.424Z,77.44
2023-08-27T08:39:27.162Z,77.18
2023-08-27T08:42:09.862Z,76.95
2023-08-27T08:44:52.106Z,76.88
2023-08-27T08:47:24.008Z,76.89
2023-08-27T08:49:57.018Z,76.42
2023-08-27T08:52:33.298Z,75.98
2023-08-27T08:55:06.330Z,75.33
2023-08-27T08:57:41.157Z,75.11
2023-08-27T09:00:14.829Z,75.62
2023-08-27T09:02:48.039Z,75.93
2023-08-27T09:05:21.460Z,75.51
2023-08-27T09:07:52.900Z,75.26
2023-08-27T09:10:26.447Z,74.94
2023-08-27T09:12:59.846Z,75.55
2023-08-27T09:15:30.485Z,75.49
2023-08-27T09:18:01.280Z,75.25
2023-08-27T09:20:32.134Z,75.04
2023-08-27T09:23:03.509Z,75.05
2023-08-27T09:25:34.204Z,75.31
2023-08-27T09:28:07.112Z,75.20
2023-08-27T09:30:37.793Z,74.22
2023-08-27T09:33:08.861Z,73.39
2023-08-27T09:35:43.411Z,74.14
2023-08-27T09:38:18.600Z,73.18
2023-08-27T09:40:49.769Z,73.58
2023-08-27T09:43:20.448Z,73.44
2023-08-27T09:45:51.094Z,72.07
2023-08-27T09:48:28.527Z,72.25
2023-08-27T09:51:07.678Z,72.11
2023-08-27T09:53:38.562Z,70.99
2023-08-27T09:56:09.480Z,72.13
2023-08-27T09:58:42.119Z,71.27
2023-08-27T10:01:13.111Z,71.34
2023-08-27T10:03:43.794Z,71.25
2023-08-27T10:06:14.506Z,70.18
2023-08-27T10:08:53.406Z,69.83
2023-08-27T10:11:25.959Z,70.40
2023-08-27T10:13:59.842Z,69.47
2023-08-27T10:16:32.410Z,69.64
2023-08-27T10:19:03.386Z,69.31
2023-08-27T10:21:34.121Z,69.17
2023-08-27T10:24:06.213Z,69.02
2023-08-27T10:26:37.778Z,68.62
2023-08-27T10:29:08.276Z,68.38
2023-08-27T10:31:39.088Z,68.38
2023-08-27T10:34:10.035Z,67.89
2023-08-27T10:36:42.754Z,67.68
2023-08-27T10:39:14.964Z,66.43
2023-08-27T10:41:45.640Z,66.51
2023-08-27T10:44:21.552Z,67.03
2023-08-27T10:47:15.212Z,66.40
2023-08-27T10:49:54.009Z,66.68
2023-08-27T10:52:30.545Z,67.34
2023-08-27T10:55:03.779Z,65.60
2023-08-27T10:57:40.221Z,65.76
2023-08-27T11:00:13.913Z,65.25
2023-08-27T11:03:15.062Z,66.01
2023-08-27T11:05:46.685Z,64.16
2023-08-27T11:08:17.730Z,64.67
2023-08-27T11:10:48.671Z,65.14
2023-08-27T11:13:37.058Z,66.23
2023-08-27T11:16:15.419Z,64.78
2023-08-27T11:18:51.822Z,65.13
2023-08-27T11:21:43.493Z,63.49
2023-08-27T11:24:26.260Z,63.55
2023-08-27T11:26:57.188Z,63.25
2023-08-27T11:29:28.836Z,63.84
2023-08-27T11:32:05.570Z,64.96
2023-08-27T11:34:40.779Z,63.37
2023-08-27T11:37:13.062Z,63.19
2023-08-27T11:39:44.759Z,64.11
2023-08-27T11:42:16.727Z,65.42
2023-08-27T11:44:55.107Z,62.97
2023-08-27T11:47:26.236Z,62.98
2023-08-27T11:50:00.694Z,63.12
2023-08-27T11:52:31.569Z,63.54
2023-08-27T11:55:02.616Z,64.60
2023-08-27T11:57:35.227Z,64.42
2023-08-27T12:00:13.168Z,63.80
2023-08-27T12:02:44.311Z,63.67
2023-08-27T12:05:15.875Z,63.43
2023-08-27T12:07:46.646Z,63.02
2023-08-27T12:10:19.227Z,61.66
2023-08-27T12:12:50.667Z,62.29
2023-08-27T12:15:21.549Z,62.26
2023-08-27T12:17:53.538Z,61.66
2023-08-27T12:20:33.661Z,62.29
2023-08-27T12:23:15.318Z,62.59
2023-08-27T12:25:51.310Z,63.10
2023-08-27T12:28:22.390Z,63.69
2023-08-27T12:30:55.869Z,63.58
2023-08-27T12:33:41.321Z,63.20
2023-08-27T12:36:12.521Z,63.62
2023-08-27T12:38:43.200Z,63.59
2023-08-27T12:41:13.911Z,63.59
2023-08-27T12:43:44.900Z,64.50
2023-08-27T12:46:15.588Z,64.81
2023-08-27T12:48:46.752Z,64.09
2023-08-27T12:51:17.464Z,63.25
2023-08-27T12:53:48.105Z,63.37
2023-08-27T12:56:18.917Z,63.38
2023-08-27T12:58:49.547Z,64.24
2023-08-27T13:01:20.812Z,65.75
2023-08-27T13:03:51.800Z,65.91
2023-08-27T13:06:22.618Z,64.69
2023-08-27T13:08:53.342Z,63.05
2023-08-27T13:11:24.452Z,62.95
2023-08-27T13:13:57.336Z,62.57
2023-08-27T13:16:33.659Z,63.17
2023-08-27T13:19:17.638Z,62.78
2023-08-27T13:21:55.554Z,63.61
2023-08-27T13:24:27.734Z,63.93
2023-08-27T13:26:58.537Z,62.89
2023-08-27T13:29:29.683Z,62.78
2023-08-27T13:32:01.452Z,61.25
2023-08-27T13:34:32.599Z,60.69
2023-08-27T13:37:03.594Z,60.19
2023-08-27T13:39:34.551Z,60.34
2023-08-27T13:42:06.967Z,60.04
2023-08-27T13:44:38.219Z,59.87
2023-08-27T13:47:09.516Z,61.15
2023-08-27T13:49:40.340Z,62.35
2023-08-27T13:52:19.528Z,61.49
2023-08-27T13:54:50.672Z,61.39
2023-08-27T13:57:21.765Z,62.22
2023-08-27T13:59:53.699Z,61.64
2023-08-27T14:02:24.766Z,61.92
2023-08-27T14:04:56.075Z,62.48
2023-08-27T14:07:29.930Z,60.79
2023-08-27T14:10:02.049Z,62.60
2023-08-27T14:12:33.103Z,63.20
2023-08-27T14:15:08.212Z,62.80
2023-08-27T14:17:39.544Z,62.77
2023-08-27T14:20:12.050Z,62.08
2023-08-27T14:22:42.891Z,60.39
2023-08-27T14:25:14.152Z,62.21
2023-08-27T14:27:45.973Z,62.92
2023-08-27T14:30:17.417Z,60.81
2023-08-27T14:32:46.679Z,62.43
2023-08-27T14:35:18.159Z,62.41
2023-08-27T14:37:52.487Z,62.87
2023-08-27T14:40:23.466Z,63.26
2023-08-27T14:42:55.866Z,62.63
2023-08-27T14:45:27.849Z,61.24
2023-08-27T14:47:59.448Z,61.94
2023-08-27T14:50:35.724Z,61.25
2023-08-27T14:53:08.335Z,62.47
2023-08-27T14:55:39.086Z,62.83
2023-08-27T14:58:12.148Z,63.30
2023-08-27T15:00:44.593Z,61.92
2023-08-27T15:03:17.376Z,59.98
2023-08-27T15:05:50.942Z,60.91
2023-08-27T15:08:26.180Z,62.30
2023-08-27T15:10:58.812Z,63.78
2023-08-27T15:13:32.395Z,64.74
2023-08-27T15:16:04.537Z,65.81
2023-08-27T15:18:35.985Z,66.85
2023-08-27T15:21:07.610Z,67.35
2023-08-27T15:23:39.073Z,67.56
2023-08-27T15:26:09.966Z,67.78
2023-08-27T15:28:40.692Z,68.39
2023-08-27T15:31:12.143Z,68.21
2023-08-27T15:33:43.921Z,68.72
2023-08-27T15:36:18.140Z,69.18
2023-08-27T15:38:51.063Z,69.54
2023-08-27T15:41:22.016Z,69.96
2023-08-27T15:43:54.075Z,70.31
2023-08-27T15:46:25.292Z,71.07
2023-08-27T15:48:56.974Z,71.30
2023-08-27T15:51:29.001Z,70.69
2023-08-27T15:54:00.115Z,70.70
2023-08-27T15:56:31.352Z,70.75
2023-08-27T15:59:06.306Z,70.36
2023-08-27T16:01:38.635Z,70.76
2023-08-27T16:04:10.125Z,71.13
2023-08-27T16:06:41.663Z,71.64
2023-08-27T16:09:12.278Z,70.54
2023-08-27T16:11:43.734Z,70.80
2023-08-27T16:14:15.160Z,70.54
2023-08-27T16:16:47.045Z,70.89
2023-08-27T16:19:18.326Z,70.09
2023-08-27T16:21:49.721Z,70.25
2023-08-27T16:24:21.337Z,70.70
2023-08-27T16:26:50.478Z,70.61
2023-08-27T16:29:21.813Z,70.50
2023-08-27T16:31:52.852Z,71.15
2023-08-27T16:34:24.140Z,71.13
2023-08-27T16:36:57.472Z,70.94
2023-08-27T16:39:28.756Z,70.70
2023-08-27T16:41:59.655Z,71.04
2023-08-27T16:44:30.556Z,70.98
2023-08-27T16:47:01.472Z,71.31
2023-08-27T16:49:33.252Z,71.38
2023-08-27T16:52:07.551Z,71.43
2023-08-27T16:54:38.433Z,71.32
2023-08-27T16:57:09.524Z,71.70
2023-08-27T16:59:41.068Z,71.57
2023-08-27T17:02:11.780Z,71.84
2023-08-27T17:04:42.435Z,72.09
2023-08-27T17:07:13.062Z,72.19
2023-08-27T17:09:43.706Z,72.08
2023-08-27T17:12:14.672Z,72.24
2023-08-27T17:14:49.424Z,72.26
2023-08-27T17:17:20.169Z,72.17
2023-08-27T17:19:53.582Z,72.42
2023-08-27T17:22:25.906Z,72.16
2023-08-27T17:24:57.307Z,70.98
2023-08-27T17:27:27.953Z,71.36
2023-08-27T17:29:58.671Z,71.84
2023-08-27T17:32:29.440Z,71.67
2023-08-27T17:35:00.204Z,71.45
2023-08-27T17:37:31.115Z,71.51
2023-08-27T17:40:01.873Z,71.37
2023-08-27T17:42:32.657Z,71.86
2023-08-27T17:45:05.026Z,72.04
2023-08-27T17:47:35.801Z,72.21
2023-08-27T17:50:07.622Z,71.88
2023-08-27T17:52:38.365Z,71.91
2023-08-27T17:55:10.360Z,71.91
2023-08-27T17:57:41.054Z,71.80
2023-08-27T18:00:13.740Z,71.59
2023-08-27T18:02:44.970Z,71.54
2023-08-27T18:05:19.075Z,72.12
2023-08-27T18:07:50.151Z,71.34
2023-08-27T18:10:21.322Z,71.55
2023-08-27T18:12:52.037Z,71.78
2023-08-27T18:15:22.855Z,71.82
2023-08-27T18:17:53.726Z,71.57
2023-08-27T18:20:24.437Z,71.74
2023-08-27T18:22:55.220Z,72.15
2023-08-27T18:25:25.970Z,72.16
2023-08-27T18:27:56.664Z,72.08
2023-08-27T18:30:31.628Z,71.95
2023-08-27T18:33:03.593Z,71.68
2023-08-27T18:35:34.708Z,71.56
2023-08-27T18:38:05.979Z,71.58
2023-08-27T18:40:36.691Z,71.91
2023-08-27T18:43:07.469Z,72.00
2023-08-27T18:45:38.262Z,72.02
2023-08-27T18:48:09.307Z,72.36
2023-08-27T18:50:42.059Z,72.45
2023-08-27T18:53:12.811Z,72.37
2023-08-27T18:55:46.077Z,72.32
2023-08-27T18:58:16.840Z,72.53
2023-08-27T19:00:47.732Z,72.62
2023-08-27T19:03:18.488Z,72.67
2023-08-27T19:05:49.527Z,73.13
2023-08-27T19:08:20.384Z,72.97
2023-08-27T19:10:52.508Z,72.95
2023-08-27T19:13:30.332Z,73.31
2023-08-27T19:16:18.488Z,73.47
2023-08-27T19:18:54.368Z,73.45
2023-08-27T19:21:36.873Z,73.25
2023-08-27T19:24:12.132Z,73.37
2023-08-27T19:26:50.016Z,73.40
2023-08-27T19:29:25.629Z,73.84
2023-08-27T19:32:00.336Z,73.87
2023-08-27T19:34:31.366Z,74.14
2023-08-27T19:37:02.086Z,74.21
2023-08-27T19:39:33.378Z,74.08
2023-08-27T19:42:04.414Z,74.00
2023-08-27T19:44:35.103Z,74.22
2023-08-27T19:47:06.022Z,74.20
2023-08-27T19:49:36.635Z,74.51
2023-08-27T19:52:09.388Z,74.82
2023-08-27T19:54:39.989Z,74.90
2023-08-27T19:57:13.018Z,75.13
2023-08-27T19:59:43.716Z,75.15
2023-08-27T20:02:14.738Z,75.14
2023-08-27T20:04:45.486Z,75.13
2023-08-27T20:07:16.126Z,74.94
2023-08-27T20:09:46.797Z,75.09
2023-08-27T20:12:17.469Z,75.24
2023-08-27T20:14:49.171Z,75.30
2023-08-27T20:17:18.855Z,75.43
2023-08-27T20:19:49.527Z,75.52
2023-08-27T20:22:20.337Z,75.35
2023-08-27T20:24:51.417Z,75.56
2023-08-27T20:27:22.071Z,75.66
2023-08-27T20:29:52.740Z,75.47
2023-08-27T20:32:23.353Z,75.32
2023-08-27T20:34:53.995Z,75.68
2023-08-27T20:37:24.580Z,75.50
2023-08-27T20:39:56.200Z,75.45
2023-08-27T20:42:29.705Z,75.78
2023-08-27T20:45:00.345Z,75.63
2023-08-27T20:47:32.135Z,75.59
2023-08-27T20:50:02.984Z,75.48
2023-08-27T20:52:33.846Z,75.53
2023-08-27T20:55:04.714Z,75.34
2023-08-27T20:57:35.521Z,75.57
2023-08-27T21:00:09.028Z,75.25
2023-08-27T21:02:40.063Z,75.25
2023-08-27T21:05:11.036Z,75.40
2023-08-27T21:07:42.089Z,75.40
2023-08-27T21:10:13.385Z,75.74
2023-08-27T21:12:44.016Z,75.66
2023-08-27T21:15:14.743Z,75.85
2023-08-27T21:17:45.501Z,75.87
2023-08-27T21:20:16.490Z,75.55
2023-08-27T21:22:47.211Z,75.62
2023-08-27T21:25:18.240Z,75.69
2023-08-27T21:27:48.839Z,75.54
2023-08-27T21:30:19.536Z,75.32
2023-08-27T21:32:50.836Z,75.29
2023-08-27T21:35:21.584Z,75.39
2023-08-27T21:37:52.262Z,75.37
2023-08-27T21:40:23.596Z,75.58
2023-08-27T21:42:54.318Z,75.38
2023-08-27T21:45:25.093Z,75.53
2023-08-27T21:47:55.799Z,75.58
2023-08-27T21:50:27.722Z,75.49
2023-08-27T21:52:58.604Z,75.38
2023-08-27T21:55:29.207Z,75.77
2023-08-27T21:57:59.882Z,75.65
2023-08-27T22:00:30.706Z,75.72
2023-08-27T22:03:01.833Z,75.92
2023-08-27T22:05:32.716Z,75.88
2023-08-27T22:08:04.116Z,75.58
2023-08-27T22:10:35.611Z,75.52
2023-08-27T22:13:06.629Z,75.54
2023-08-27T22:15:37.342Z,75.47
2023-08-27T22:18:08.367Z,75.65
2023-08-27T22:20:38.960Z,75.44
2023-08-27T22:23:09.582Z,75.41
2023-08-27T22:25:44.208Z,75.65
2023-08-27T22:28:15.157Z,75.88
2023-08-27T22:30:45.757Z,76.00
2023-08-27T22:33:16.362Z,76.07
2023-08-27T22:35:46.934Z,75.78
2023-08-27T22:38:17.524Z,75.82
2023-08-27T22:40:48.220Z,76.11
2023-08-27T22:43:18.786Z,76.02
2023-08-27T22:45:51.321Z,76.39
2023-08-27T22:48:21.902Z,76.60
2023-08-27T22:50:52.536Z,76.60
2023-08-27T22:53:23.141Z,76.51
2023-08-27T22:55:53.788Z,76.28
2023-08-27T22:58:25.494Z,76.25
2023-08-27T23:00:57.614Z,76.27
2023-08-27T23:03:28.341Z,76.15
2023-08-27T23:05:59.061Z,76.05
2023-08-27T23:08:29.893Z,76.04
2023-08-27T23:11:00.765Z,76.20
2023-08-27T23:13:31.416Z,76.13
2023-08-27T23:16:02.162Z,76.19
2023-08-27T23:18:32.972Z,76.56
2023-08-27T23:21:03.598Z,76.91
2023-08-27T23:23:35.926Z,76.74
2023-08-27T23:26:06.816Z,76.87
2023-08-27T23:28:37.541Z,77.01
2023-08-27T23:31:09.034Z,77.12
2023-08-27T23:33:39.867Z,76.74
2023-08-27T23:36:10.610Z,76.78
2023-08-27T23:38:41.261Z,76.83
2023-08-27T23:41:11.886Z,77.27
2023-08-27T23:43:42.503Z,77.32
2023-08-27T23:46:13.202Z,77.44
2023-08-27T23:48:43.926Z,77.34
2023-08-27T23:51:14.521Z,77.12
2023-08-27T23:53:45.178Z,77.04
2023-08-27T23:56:15.813Z,76.94
2023-08-27T23:58:46.465Z,76.72
